Time;durP1;ratioP1;P1;durP2;ratioP2;P2;SDS_P1;SDS_P2;PMS_P1;PMS_P2;Temp;Humidity;BMP_temperature;BMP_pressure;BME280_temperature;BME280_humidity;BME280_pressure;Samples;Min_cycle;Max_cycle;Signal;HPM_P1;HPM_P2
2022/02/13 00:01:15;;;;;;;71.33;22.47;;;-3.60;1.00;;;;;;5094009;28;20215;-75
2022/02/13 00:04:05;;;;;;;62.57;21.77;;;-3.60;1.00;;;;;;5094110;28;20203;-74
2022/02/13 00:06:58;;;;;;;67.80;22.87;;;-3.60;1.00;;;;;;5093892;28;20659;-74
2022/02/13 00:09:46;;;;;;;68.63;23.60;;;-3.60;1.00;;;;;;5094054;28;20214;-74
2022/02/13 00:12:33;;;;;;;68.60;23.53;;;-3.70;1.00;;;;;;5094275;28;20200;-75
2022/02/13 00:15:21;;;;;;;74.60;24.23;;;-3.70;1.00;;;;;;5093495;28;20284;-74
2022/02/13 00:18:09;;;;;;;67.80;21.43;;;-3.70;1.00;;;;;;5092993;28;20218;-74
2022/02/13 00:20:56;;;;;;;65.37;21.87;;;-3.80;1.00;;;;;;5093373;28;20569;-75
2022/02/13 00:23:45;;;;;;;63.80;23.20;;;-3.80;1.00;;;;;;5093559;28;20663;-75
2022/02/13 00:26:33;;;;;;;71.30;23.80;;;-3.80;1.00;;;;;;5086096;28;20575;-75
2022/02/13 00:29:21;;;;;;;66.83;22.47;;;-3.90;1.00;;;;;;5093467;28;20195;-75
2022/02/13 00:32:09;;;;;;;66.67;21.57;;;-3.90;1.00;;;;;;5094692;28;20200;-74
2022/02/13 00:34:57;;;;;;;60.57;21.83;;;-3.90;1.00;;;;;;5093697;28;20196;-74
2022/02/13 00:37:44;;;;;;;64.00;21.10;;;-3.90;1.00;;;;;;5093673;28;20663;-74
2022/02/13 00:40:33;;;;;;;62.07;21.07;;;-3.90;1.00;;;;;;5094242;28;20223;-74
2022/02/13 00:43:21;;;;;;;70.70;21.97;;;-4.00;1.00;;;;;;5093572;28;20565;-74
2022/02/13 00:46:09;;;;;;;87.77;27.00;;;-4.00;1.00;;;;;;5093022;28;20568;-74
2022/02/13 00:48:57;;;;;;;128.77;37.43;;;-4.00;1.00;;;;;;5093002;28;20199;-74
2022/02/13 00:51:44;;;;;;;122.13;37.87;;;-4.00;1.00;;;;;;5093635;28;20266;-73
2022/02/13 00:54:33;;;;;;;147.47;47.03;;;-4.10;1.00;;;;;;5092774;28;20261;-75
2022/02/13 00:57:22;;;;;;;130.67;42.67;;;-4.10;1.00;;;;;;5092800;28;20369;-74
2022/02/13 01:00:10;;;;;;;119.27;40.70;;;-4.10;1.00;;;;;;5093267;28;20591;-74
2022/02/13 01:02:58;;;;;;;109.30;34.07;;;-4.10;1.00;;;;;;5092485;28;20196;-74
2022/02/13 01:05:45;;;;;;;97.47;30.97;;;-4.10;1.00;;;;;;5093187;28;20200;-74
2022/02/13 01:08:33;;;;;;;80.80;28.87;;;-4.10;1.00;;;;;;5092610;28;20200;-75
2022/02/13 01:11:21;;;;;;;75.60;23.10;;;-4.10;1.00;;;;;;5092620;28;20220;-74
2022/02/13 01:14:10;;;;;;;99.10;31.10;;;-4.20;1.00;;;;;;5092399;28;20203;-74
2022/02/13 01:16:58;;;;;;;71.93;24.20;;;-4.20;1.00;;;;;;5092652;28;20200;-74
2022/02/13 01:19:45;;;;;;;63.97;22.53;;;-4.20;1.00;;;;;;5093092;28;20192;-74
2022/02/13 01:22:33;;;;;;;77.67;25.20;;;-4.20;1.00;;;;;;5092452;28;20579;-74
2022/02/13 01:25:20;;;;;;;69.20;21.93;;;-4.20;1.00;;;;;;5092272;28;20724;-74
2022/02/13 01:28:08;;;;;;;84.70;27.07;;;-4.30;1.00;;;;;;5092223;28;20793;-74
2022/02/13 01:31:01;;;;;;;106.83;30.60;;;-4.30;1.00;;;;;;5087543;28;20199;-74
2022/02/13 01:33:48;;;;;;;115.03;34.00;;;-4.40;1.00;;;;;;5091510;28;20206;-74
2022/02/13 01:36:36;;;;;;;134.37;39.20;;;-4.40;1.00;;;;;;5092314;28;20202;-75
2022/02/13 01:39:23;;;;;;;165.07;51.93;;;-4.40;1.00;;;;;;5093407;28;20360;-74
2022/02/13 01:42:11;;;;;;;142.37;43.97;;;-4.40;1.00;;;;;;5091807;28;20196;-74
2022/02/13 01:45:02;;;;;;;139.17;43.93;;;-4.40;1.00;;;;;;5091559;28;20207;-74
2022/02/13 01:47:51;;;;;;;113.90;36.87;;;-4.40;1.00;;;;;;5091986;28;20224;-75
2022/02/13 01:50:38;;;;;;;103.83;35.03;;;-4.40;1.00;;;;;;5091102;28;20199;-74
2022/02/13 01:53:26;;;;;;;111.57;34.50;;;-4.40;1.00;;;;;;5092004;28;20200;-75
2022/02/13 01:56:14;;;;;;;111.33;35.67;;;-4.40;1.00;;;;;;5091852;28;20670;-74
2022/02/13 01:59:02;;;;;;;93.07;31.37;;;-4.40;1.00;;;;;;5092177;28;20196;-74
2022/02/13 02:01:49;;;;;;;123.57;40.37;;;-4.40;1.00;;;;;;5092329;28;20212;-74
2022/02/13 02:04:38;;;;;;;95.37;32.83;;;-4.40;1.00;;;;;;5092991;28;20200;-75
2022/02/13 02:07:26;;;;;;;76.77;24.40;;;-4.40;1.00;;;;;;5093067;28;20196;-75
2022/02/13 02:10:14;;;;;;;73.33;26.53;;;-4.40;1.00;;;;;;5091385;28;20604;-75
2022/02/13 02:13:02;;;;;;;102.47;36.30;;;-4.40;1.00;;;;;;5091696;28;20231;-74
2022/02/13 02:15:49;;;;;;;98.07;32.27;;;-4.40;1.00;;;;;;5091908;28;20200;-73
2022/02/13 02:18:37;;;;;;;99.30;35.00;;;-4.40;1.00;;;;;;5091272;28;20192;-75
2022/02/13 02:21:26;;;;;;;88.83;32.30;;;-4.40;1.00;;;;;;5091860;28;20264;-75
2022/02/13 02:24:16;;;;;;;89.37;31.50;;;-4.40;1.00;;;;;;5091824;28;20662;-75
2022/02/13 02:27:04;;;;;;;98.80;33.73;;;-4.40;1.00;;;;;;5092806;28;20199;-75
2022/02/13 02:29:51;;;;;;;79.20;29.73;;;-4.40;1.00;;;;;;5091865;28;20567;-75
2022/02/13 02:32:39;;;;;;;73.57;26.67;;;-4.40;1.00;;;;;;5090812;28;20199;-75
2022/02/13 02:35:27;;;;;;;70.93;24.73;;;-4.40;1.00;;;;;;5091579;28;20196;-75
2022/02/13 02:38:14;;;;;;;64.77;23.80;;;-4.40;1.00;;;;;;5092172;28;20698;-75
2022/02/13 02:41:04;;;;;;;72.40;25.20;;;-4.40;1.00;;;;;;5091860;28;20208;-75
2022/02/13 02:43:52;;;;;;;73.60;25.97;;;-4.40;1.00;;;;;;5091582;28;20325;-76
2022/02/13 02:46:40;;;;;;;75.57;27.57;;;-4.40;1.00;;;;;;5091673;28;20238;-76
2022/02/13 02:49:27;;;;;;;141.77;43.17;;;-4.40;1.00;;;;;;5091535;28;20200;-75
2022/02/13 02:52:18;;;;;;;176.60;51.70;;;-4.30;1.00;;;;;;5092087;28;20651;-75
2022/02/13 02:55:06;;;;;;;183.13;55.50;;;-4.30;1.00;;;;;;5092528;28;20192;-75
2022/02/13 02:57:55;;;;;;;181.83;60.30;;;-4.30;1.00;;;;;;5091820;28;20237;-75
2022/02/13 03:00:42;;;;;;;134.20;45.57;;;-4.30;1.00;;;;;;5093116;28;20258;-74
2022/02/13 03:03:31;;;;;;;137.30;44.43;;;-4.30;1.00;;;;;;5095836;28;20655;-75
2022/02/13 03:06:18;;;;;;;167.00;51.77;;;-4.40;1.00;;;;;;5095314;28;20279;-76
2022/02/13 03:09:06;;;;;;;123.57;42.20;;;-4.40;1.00;;;;;;5094983;28;20207;-75
2022/02/13 03:11:53;;;;;;;102.60;37.70;;;-4.40;1.00;;;;;;5095343;28;20228;-75
2022/02/13 03:14:42;;;;;;;90.97;32.97;;;-4.40;1.00;;;;;;5095706;28;20196;-75
2022/02/13 03:17:30;;;;;;;75.13;26.43;;;-4.40;1.00;;;;;;5095182;28;20211;-75
2022/02/13 03:20:17;;;;;;;72.00;27.00;;;-4.40;1.00;;;;;;5094454;28;20195;-75
2022/02/13 03:23:05;;;;;;;84.70;27.63;;;-4.40;1.00;;;;;;5095831;28;20555;-75
2022/02/13 03:25:52;;;;;;;123.77;34.20;;;-4.40;1.00;;;;;;5094793;28;20634;-76
2022/02/13 03:28:40;;;;;;;150.47;39.73;;;-4.40;1.00;;;;;;5094343;28;20199;-75
2022/02/13 03:31:29;;;;;;;232.17;52.37;;;-4.50;1.00;;;;;;5095347;28;20202;-75
2022/02/13 03:34:16;;;;;;;422.70;99.43;;;-4.40;1.00;;;;;;5094390;28;20675;-75
2022/02/13 03:37:05;;;;;;;434.63;106.73;;;-4.50;1.00;;;;;;5094873;28;20192;-75
2022/02/13 03:39:53;;;;;;;397.60;98.30;;;-4.50;1.00;;;;;;5094560;28;20238;-76
2022/02/13 03:42:40;;;;;;;264.80;65.03;;;-4.50;1.00;;;;;;5094939;28;20678;-76
2022/02/13 03:45:28;;;;;;;153.07;42.07;;;-4.40;1.00;;;;;;5093365;28;20659;-76
2022/02/13 03:48:17;;;;;;;190.47;47.07;;;-4.50;1.00;;;;;;5093222;28;20626;-76
2022/02/13 03:51:05;;;;;;;169.07;44.07;;;-4.50;1.00;;;;;;5093662;28;20199;-75
2022/02/13 03:53:52;;;;;;;166.20;45.17;;;-4.50;1.00;;;;;;5093568;28;20203;-75
2022/02/13 03:56:40;;;;;;;116.07;30.33;;;-4.40;1.00;;;;;;5094810;28;20662;-76
2022/02/13 03:59:28;;;;;;;104.07;30.90;;;-4.50;1.00;;;;;;5094348;28;20667;-76
2022/02/13 04:02:16;;;;;;;92.13;26.27;;;-4.40;1.00;;;;;;5094006;28;20688;-75
2022/02/13 04:05:05;;;;;;;105.40;30.57;;;-4.40;1.00;;;;;;5094103;28;20196;-76
2022/02/13 04:07:53;;;;;;;73.53;24.70;;;-4.30;1.00;;;;;;5093335;28;20637;-76
2022/02/13 04:10:41;;;;;;;50.37;15.97;;;-4.30;1.00;;;;;;5093558;28;20224;-76
2022/02/13 04:13:31;;;;;;;54.37;17.57;;;-4.20;1.00;;;;;;5092614;28;20550;-75
2022/02/13 04:16:19;;;;;;;57.57;19.17;;;-4.10;1.00;;;;;;5093801;28;20571;-75
2022/02/13 04:19:06;;;;;;;61.07;21.37;;;-4.10;1.00;;;;;;5093559;28;20200;-75
2022/02/13 04:21:55;;;;;;;57.33;18.80;;;-4.10;1.00;;;;;;5093331;28;20219;-76
2022/02/13 04:24:43;;;;;;;37.83;13.50;;;-4.00;1.00;;;;;;5094090;28;20676;-76
2022/02/13 04:27:30;;;;;;;32.87;11.77;;;-4.00;1.00;;;;;;5093750;28;20352;-75
2022/02/13 04:30:18;;;;;;;33.87;12.53;;;-3.90;1.00;;;;;;5093334;28;20204;-75
2022/02/13 04:33:05;;;;;;;37.80;12.23;;;-3.90;1.00;;;;;;5093570;28;20199;-75
2022/02/13 04:35:53;;;;;;;34.97;12.63;;;-3.70;1.00;;;;;;5092846;28;20196;-75
2022/02/13 04:38:42;;;;;;;33.43;12.50;;;-3.70;1.00;;;;;;5093547;28;20196;-75
2022/02/13 04:41:29;;;;;;;33.87;12.57;;;-3.60;1.00;;;;;;5084061;28;20307;-75
2022/02/13 04:44:17;;;;;;;33.93;12.90;;;-3.50;1.00;;;;;;5093374;28;20566;-75
2022/02/13 04:47:05;;;;;;;34.93;12.27;;;-3.50;1.00;;;;;;5093025;28;20306;-75
2022/02/13 04:49:53;;;;;;;36.47;12.63;;;-3.50;1.00;;;;;;5093539;28;20207;-75
2022/02/13 04:52:40;;;;;;;38.93;13.40;;;-3.40;1.00;;;;;;5093076;28;20727;-75
2022/02/13 04:55:29;;;;;;;36.07;12.47;;;-3.40;1.00;;;;;;5092992;28;20683;-75
2022/02/13 04:58:18;;;;;;;39.73;13.37;;;-3.40;1.00;;;;;;5093224;28;20268;-75
2022/02/13 05:01:05;;;;;;;39.60;13.97;;;-3.30;99.90;;;;;;5093228;28;20373;-75
2022/02/13 05:03:53;;;;;;;40.97;14.40;;;-3.40;99.90;;;;;;5093557;28;20276;-75
2022/02/13 05:06:41;;;;;;;43.17;14.40;;;-3.40;1.00;;;;;;5093287;28;20674;-75
2022/02/13 05:09:29;;;;;;;43.03;16.03;;;-3.40;1.00;;;;;;5092432;28;20200;-75
2022/02/13 05:12:18;;;;;;;38.47;14.07;;;-3.40;1.00;;;;;;5092433;28;20196;-75
2022/02/13 05:15:06;;;;;;;36.63;12.80;;;-3.40;1.00;;;;;;5092423;28;20713;-75
2022/02/13 05:17:54;;;;;;;36.30;13.20;;;-3.50;1.00;;;;;;5092595;28;20277;-75
2022/02/13 05:20:41;;;;;;;56.20;18.50;;;-3.50;99.90;;;;;;5092641;28;20192;-75
2022/02/13 05:23:29;;;;;;;60.67;18.63;;;-3.50;99.90;;;;;;5092604;28;20587;-75
2022/02/13 05:26:16;;;;;;;44.97;15.67;;;-3.50;99.90;;;;;;5091944;28;20200;-75
2022/02/13 05:29:05;;;;;;;33.00;13.80;;;-3.60;1.00;;;;;;5092836;28;20207;-75
2022/02/13 05:31:53;;;;;;;44.00;14.73;;;-3.60;1.00;;;;;;5092186;28;20199;-75
2022/02/13 05:34:40;;;;;;;40.97;14.10;;;-3.60;1.00;;;;;;5092796;28;20233;-75
2022/02/13 05:37:30;;;;;;;41.77;14.13;;;-3.70;1.00;;;;;;5092836;28;20195;-75
2022/02/13 05:40:17;;;;;;;47.90;16.40;;;-3.60;1.00;;;;;;5092247;28;20575;-75
2022/02/13 05:43:36;;;;;;;45.73;15.63;;;-3.60;99.90;;;;;;5092038;28;20288;-75
2022/02/13 05:46:25;;;;;;;54.33;17.47;;;-3.70;1.00;;;;;;5091657;28;20253;-75
2022/02/13 05:49:31;;;;;;;47.70;16.17;;;-3.60;99.90;;;;;;5092525;28;20202;-75
2022/02/13 05:52:19;;;;;;;50.30;18.23;;;-3.60;1.00;;;;;;5091952;28;20195;-75
2022/02/13 05:55:07;;;;;;;50.17;17.93;;;-3.60;99.90;;;;;;5092515;28;20200;-75
2022/02/13 05:57:54;;;;;;;54.57;18.77;;;-3.60;99.90;;;;;;5091871;28;20589;-75
2022/02/13 06:00:42;;;;;;;49.27;17.13;;;-3.50;99.90;;;;;;5092295;28;20196;-75
2022/02/13 06:03:34;;;;;;;53.27;17.80;;;-3.50;99.90;;;;;;5093208;28;20203;-75
2022/02/13 06:06:21;;;;;;;46.27;16.80;;;-3.50;1.00;;;;;;5092123;28;20282;-75
2022/02/13 06:09:09;;;;;;;47.27;16.30;;;-3.50;99.90;;;;;;5091820;28;20200;-75
2022/02/13 06:11:56;;;;;;;53.03;16.87;;;-3.40;99.90;;;;;;5092282;28;20578;-75
2022/02/13 06:14:43;;;;;;;45.77;16.20;;;-3.40;99.90;;;;;;5092645;28;20573;-74
2022/02/13 06:17:32;;;;;;;40.80;15.83;;;-3.30;99.90;;;;;;5092160;28;20203;-75
2022/02/13 06:20:21;;;;;;;40.63;15.37;;;-3.30;1.00;;;;;;5091602;28;20200;-75
2022/02/13 06:23:08;;;;;;;52.33;15.37;;;-3.20;93.30;;;;;;5091065;28;20281;-75
2022/02/13 06:25:57;;;;;;;44.47;17.07;;;-3.20;1.00;;;;;;5091487;28;20196;-75
2022/02/13 06:28:44;;;;;;;45.73;17.03;;;-3.10;1.00;;;;;;5091625;28;20746;-75
2022/02/13 06:31:32;;;;;;;37.97;14.57;;;-3.10;99.90;;;;;;5090787;28;20573;-75
2022/02/13 06:34:20;;;;;;;40.43;15.23;;;-3.00;1.00;;;;;;5091446;28;20218;-75
2022/02/13 06:37:09;;;;;;;44.57;16.07;;;-2.90;99.90;;;;;;5094739;28;20212;-75
2022/02/13 06:39:56;;;;;;;44.63;16.37;;;-2.90;99.90;;;;;;5096068;28;20264;-75
2022/02/13 06:42:44;;;;;;;44.67;16.17;;;-2.70;99.90;;;;;;5095982;28;20216;-75
2022/02/13 06:45:31;;;;;;;44.37;15.97;;;-2.70;99.90;;;;;;5087818;28;20565;-75
2022/02/13 06:48:19;;;;;;;42.67;16.07;;;-2.60;1.00;;;;;;5095206;28;20705;-74
2022/02/13 06:51:07;;;;;;;38.50;15.57;;;-2.50;1.00;;;;;;5095930;28;20253;-75
2022/02/13 06:53:56;;;;;;;43.73;17.27;;;-2.40;99.90;;;;;;5095160;28;20220;-75
2022/02/13 06:56:43;;;;;;;45.03;16.80;;;-2.30;99.90;;;;;;5095513;28;20800;-74
2022/02/13 06:59:31;;;;;;;51.37;17.77;;;-2.10;99.90;;;;;;5087704;28;20206;-75
2022/02/13 07:02:18;;;;;;;48.50;18.80;;;-2.00;1.00;;;;;;5096305;28;20682;-75
2022/02/13 07:05:06;;;;;;;47.50;17.70;;;-1.90;1.00;;;;;;5095712;28;20203;-74
2022/02/13 07:07:54;;;;;;;49.10;17.33;;;-1.70;1.00;;;;;;5095013;28;20204;-75
2022/02/13 07:10:43;;;;;;;52.70;17.67;;;-1.60;4.10;;;;;;5095438;28;20220;-74
2022/02/13 07:13:31;;;;;;;42.07;15.57;;;-1.50;1.00;;;;;;5086699;28;20196;-75
2022/02/13 07:16:18;;;;;;;47.37;16.77;;;-1.30;5.00;;;;;;5094631;28;20207;-74
2022/02/13 07:19:06;;;;;;;54.10;19.63;;;-1.20;17.10;;;;;;5095443;28;20207;-74
2022/02/13 07:21:53;;;;;;;58.13;21.67;;;-1.00;52.80;;;;;;5094561;28;20208;-74
2022/02/13 07:24:41;;;;;;;57.47;22.00;;;-0.90;48.00;;;;;;5095138;28;20191;-74
2022/02/13 07:27:32;;;;;;;53.50;19.83;;;-0.80;69.70;;;;;;5094026;28;20191;-74
2022/02/13 07:30:19;;;;;;;51.30;18.57;;;-0.70;90.30;;;;;;5095272;28;20204;-75
2022/02/13 07:33:07;;;;;;;45.53;17.33;;;-0.50;90.00;;;;;;5095642;28;20759;-74
2022/02/13 07:35:54;;;;;;;45.80;16.30;;;-0.40;88.80;;;;;;5094417;28;20204;-74
2022/02/13 07:38:42;;;;;;;44.50;16.50;;;-0.30;87.60;;;;;;5094898;28;20200;-74
2022/02/13 07:41:30;;;;;;;44.23;17.50;;;-0.10;85.60;;;;;;5094626;28;20210;-74
2022/02/13 07:44:19;;;;;;;44.60;17.83;;;0.10;84.60;;;;;;5095345;28;20196;-74
2022/02/13 07:47:07;;;;;;;67.43;21.67;;;0.20;82.60;;;;;;5093251;28;20844;-75
2022/02/13 07:49:54;;;;;;;47.50;18.67;;;0.30;81.80;;;;;;5094161;28;20598;-75
2022/02/13 07:52:42;;;;;;;49.63;19.07;;;0.50;78.80;;;;;;5095529;28;20192;-75
2022/02/13 07:55:32;;;;;;;39.07;15.93;;;0.60;78.20;;;;;;5086251;28;20196;-75
2022/02/13 07:58:19;;;;;;;37.73;14.73;;;0.70;77.60;;;;;;5094394;28;20196;-74
2022/02/13 08:01:08;;;;;;;35.77;14.93;;;0.90;76.30;;;;;;5094173;28;20226;-74
2022/02/13 08:03:56;;;;;;;35.37;14.07;;;1.00;74.80;;;;;;5093171;28;20199;-74
2022/02/13 08:06:43;;;;;;;32.17;14.07;;;1.10;74.20;;;;;;5093681;28;20200;-74
2022/02/13 08:09:31;;;;;;;35.63;14.40;;;1.30;73.70;;;;;;5094193;28;20542;-74
2022/02/13 08:12:19;;;;;;;27.50;12.33;;;1.50;73.00;;;;;;5094720;28;20280;-74
2022/02/13 08:15:06;;;;;;;29.60;13.23;;;1.60;71.40;;;;;;5093884;28;20224;-74
2022/02/13 08:17:56;;;;;;;32.00;13.00;;;1.70;69.50;;;;;;5093536;28;20199;-74
2022/02/13 08:20:44;;;;;;;34.67;13.50;;;2.00;69.30;;;;;;5093430;28;20223;-75
2022/02/13 08:23:32;;;;;;;27.97;12.50;;;2.20;69.20;;;;;;5093511;28;20239;-75
2022/02/13 08:26:19;;;;;;;32.67;13.17;;;2.50;69.20;;;;;;5093225;28;20199;-75
2022/02/13 08:29:07;;;;;;;34.50;13.77;;;2.60;67.50;;;;;;5093151;28;20235;-73
2022/02/13 08:31:55;;;;;;;32.87;12.97;;;2.90;67.30;;;;;;5093955;28;20237;-74
2022/02/13 08:34:45;;;;;;;29.67;12.30;;;3.20;65.70;;;;;;5092701;28;20192;-75
2022/02/13 08:37:33;;;;;;;27.97;11.43;;;3.50;64.40;;;;;;5085731;28;20200;-74
2022/02/13 08:40:20;;;;;;;28.57;12.17;;;3.60;61.20;;;;;;5093593;28;20570;-75
2022/02/13 08:43:08;;;;;;;26.50;12.00;;;3.80;60.70;;;;;;5093142;28;20299;-74
2022/02/13 08:45:56;;;;;;;30.63;14.07;;;4.00;59.60;;;;;;5093644;28;20196;-74
2022/02/13 08:48:44;;;;;;;34.17;14.00;;;4.40;59.80;;;;;;5092907;28;20200;-74
2022/02/13 08:51:33;;;;;;;33.97;14.37;;;4.70;59.10;;;;;;5084659;28;20211;-75
2022/02/13 08:54:21;;;;;;;31.33;14.33;;;5.00;58.70;;;;;;5093151;28;20578;-74
2022/02/13 08:57:08;;;;;;;34.23;14.40;;;5.20;57.30;;;;;;5093358;28;20575;-74
2022/02/13 08:59:56;;;;;;;35.90;15.40;;;5.40;56.60;;;;;;5088024;28;20206;-74
2022/02/13 09:02:43;;;;;;;37.80;15.13;;;5.60;56.00;;;;;;5092124;28;20208;-75
2022/02/13 09:05:31;;;;;;;35.43;15.37;;;5.60;56.30;;;;;;5092765;28;20575;-75
2022/02/13 09:08:20;;;;;;;32.20;13.93;;;5.80;55.80;;;;;;5093081;28;20204;-74
2022/02/13 09:11:07;;;;;;;32.03;14.37;;;5.90;54.30;;;;;;5092617;28;20723;-75
2022/02/13 09:13:57;;;;;;;32.27;14.83;;;6.10;54.00;;;;;;5091820;28;20685;-75
2022/02/13 09:16:44;;;;;;;29.33;12.23;;;6.10;52.60;;;;;;5092762;28;20207;-75
2022/02/13 09:19:32;;;;;;;30.90;12.77;;;6.10;53.00;;;;;;5093536;28;20238;-75
2022/02/13 09:22:19;;;;;;;29.60;12.87;;;6.30;53.70;;;;;;5093254;28;20221;-75
2022/02/13 09:25:09;;;;;;;28.70;12.00;;;6.10;52.80;;;;;;5091661;28;20203;-74
2022/02/13 09:27:57;;;;;;;24.83;9.73;;;6.10;53.30;;;;;;5092965;28;20196;-75
2022/02/13 09:30:46;;;;;;;19.87;8.27;;;6.20;52.50;;;;;;5092812;28;20195;-75
2022/02/13 09:33:34;;;;;;;16.77;7.40;;;6.40;52.30;;;;;;5092360;28;20273;-75
2022/02/13 09:36:21;;;;;;;14.83;6.53;;;6.50;52.40;;;;;;5092890;28;20361;-75
2022/02/13 09:39:09;;;;;;;12.17;5.63;;;6.50;49.20;;;;;;5092955;28;20202;-74
2022/02/13 09:41:58;;;;;;;12.23;5.50;;;6.60;48.20;;;;;;5092364;28;20243;-74
2022/02/13 09:44:46;;;;;;;11.90;5.57;;;6.70;48.10;;;;;;5092227;28;20204;-75
2022/02/13 09:47:34;;;;;;;14.47;5.27;;;6.60;48.20;;;;;;5092075;28;20230;-75
2022/02/13 09:50:21;;;;;;;11.53;5.87;;;6.70;49.70;;;;;;5092391;28;20249;-74
2022/02/13 09:53:09;;;;;;;22.50;5.97;;;6.90;48.00;;;;;;5092529;28;20199;-74
2022/02/13 09:55:59;;;;;;;12.97;5.37;;;7.20;48.30;;;;;;5092589;28;20576;-75
2022/02/13 09:58:48;;;;;;;12.43;5.60;;;7.20;46.60;;;;;;5093209;28;20192;-75
2022/02/13 10:01:36;;;;;;;11.03;5.37;;;7.60;48.00;;;;;;5091780;28;20665;-75
2022/02/13 10:04:27;;;;;;;11.23;5.67;;;8.40;48.80;;;;;;5092177;28;20222;-75
2022/02/13 10:07:18;;;;;;;12.07;5.10;;;8.40;46.20;;;;;;5092363;28;20200;-75
2022/02/13 10:10:07;;;;;;;10.87;5.67;;;8.40;44.70;;;;;;5092114;28;20302;-75
2022/02/13 10:12:55;;;;;;;11.93;5.40;;;8.10;45.10;;;;;;5092323;28;20262;-74
2022/02/13 10:15:44;;;;;;;11.00;5.40;;;8.00;43.30;;;;;;5091639;28;20662;-75
2022/02/13 10:18:32;;;;;;;10.97;4.73;;;7.70;44.40;;;;;;5092423;28;20199;-74
2022/02/13 10:21:36;;;;;;;11.17;4.50;;;7.90;45.80;;;;;;5093034;28;20202;-74
2022/02/13 10:24:25;;;;;;;11.53;5.43;;;7.50;44.20;;;;;;5092296;28;20211;-75
2022/02/13 10:27:13;;;;;;;10.33;4.23;;;7.10;44.10;;;;;;5092292;28;20200;-74
2022/02/13 10:30:06;;;;;;;12.63;5.50;;;7.30;44.70;;;;;;5092035;28;20202;-75
2022/02/13 10:32:54;;;;;;;10.83;5.00;;;7.20;43.70;;;;;;5091703;28;20279;-74
2022/02/13 10:35:42;;;;;;;11.17;4.87;;;7.50;45.70;;;;;;5092118;28;20192;-75
2022/02/13 10:38:31;;;;;;;14.60;5.47;;;7.50;43.70;;;;;;5092551;28;20237;-74
2022/02/13 10:41:24;;;;;;;11.53;4.43;;;8.10;44.20;;;;;;5092024;28;20198;-74
2022/02/13 10:44:11;;;;;;;15.83;5.87;;;8.50;43.30;;;;;;5091790;28;20218;-75
2022/02/13 10:46:59;;;;;;;8.33;4.93;;;8.50;42.50;;;;;;5091147;28;20227;-74
2022/02/13 10:49:48;;;;;;;12.97;5.57;;;8.30;43.00;;;;;;5092580;28;20205;-74
2022/02/13 10:52:36;;;;;;;15.40;5.90;;;7.90;42.50;;;;;;5091746;28;20207;-74
2022/02/13 10:55:24;;;;;;;10.33;5.30;;;8.00;43.30;;;;;;5092069;28;20235;-74
2022/02/13 10:58:11;;;;;;;12.40;4.70;;;8.00;43.40;;;;;;5091665;28;20251;-74
2022/02/13 11:01:02;;;;;;;11.30;4.97;;;8.50;42.30;;;;;;5092016;28;20739;-75
2022/02/13 11:03:51;;;;;;;10.93;5.17;;;9.00;42.10;;;;;;5092339;28;20309;-75
2022/02/13 11:06:40;;;;;;;11.27;5.10;;;9.40;41.10;;;;;;5091606;28;20196;-74
2022/02/13 11:09:28;;;;;;;11.27;4.33;;;9.80;41.70;;;;;;5091137;28;20196;-73
2022/02/13 11:12:20;;;;;;;10.97;5.23;;;10.00;38.10;;;;;;5091644;28;20200;-75
2022/02/13 11:15:18;;;;;;;10.97;5.23;;;10.00;39.80;;;;;;5091808;28;20575;-75
2022/02/13 11:18:06;;;;;;;11.60;5.07;;;10.20;40.30;;;;;;5091573;28;20207;-75
2022/02/13 11:20:55;;;;;;;11.97;5.00;;;10.40;38.20;;;;;;5091871;28;20202;-75
2022/02/13 11:23:51;;;;;;;10.70;4.73;;;10.60;38.80;;;;;;5094149;28;20225;-74
2022/02/13 11:26:40;;;;;;;12.73;5.00;;;10.50;37.70;;;;;;5095532;28;20651;-74
2022/02/13 11:29:49;;;;;;;10.63;4.33;;;10.70;38.30;;;;;;5095148;28;20200;-74
2022/02/13 11:32:38;;;;;;;11.73;5.47;;;11.10;36.20;;;;;;5095690;28;20203;-75
2022/02/13 11:35:25;;;;;;;9.23;4.37;;;10.80;35.10;;;;;;5095012;28;20573;-75
2022/02/13 11:38:13;;;;;;;11.67;5.17;;;10.70;37.60;;;;;;5094376;28;20210;-75
2022/02/13 11:41:02;;;;;;;11.83;4.70;;;11.20;36.90;;;;;;5094987;28;20570;-75
2022/02/13 11:44:01;;;;;;;12.27;4.70;;;11.50;34.50;;;;;;5094755;28;20590;-74
2022/02/13 11:46:57;;;;;;;11.30;4.90;;;11.50;35.70;;;;;;5094252;28;20603;-75
2022/02/13 11:50:24;;;;;;;9.93;4.97;;;11.70;34.40;;;;;;5095004;28;20662;-74
2022/02/13 11:53:12;;;;;;;13.27;4.87;;;12.30;35.70;;;;;;5094907;28;20318;-74
2022/02/13 11:56:22;;;;;;;12.93;4.83;;;12.30;32.70;;;;;;5094595;28;20202;-74
2022/02/13 11:59:10;;;;;;;8.17;4.00;;;12.50;32.50;;;;;;5094617;28;20200;-74
2022/02/13 12:01:57;;;;;;;12.13;5.47;;;12.60;32.10;;;;;;5094516;28;20572;-75
2022/02/13 12:05:16;;;;;;;13.67;4.77;;;13.00;33.20;;;;;;5094570;28;20595;-74
2022/02/13 12:08:03;;;;;;;9.47;4.57;;;13.50;32.90;;;;;;5093727;28;20196;-74
2022/02/13 12:11:01;;;;;;;10.63;4.70;;;13.60;30.50;;;;;;5093809;28;20226;-75
2022/02/13 12:13:50;;;;;;;10.70;5.10;;;13.50;30.60;;;;;;5093688;28;20196;-74
2022/02/13 12:16:38;;;;;;;10.03;5.37;;;13.10;30.00;;;;;;5093873;28;20204;-74
2022/02/13 12:19:33;;;;;;;9.30;4.83;;;12.50;31.00;;;;;;5094174;28;20201;-74
2022/02/13 12:22:21;;;;;;;14.10;4.93;;;12.30;32.00;;;;;;5094237;28;20542;-74
2022/02/13 12:25:10;;;;;;;9.33;4.40;;;12.90;33.60;;;;;;5094497;28;20691;-75
2022/02/13 12:27:57;;;;;;;11.07;4.47;;;13.20;31.30;;;;;;5094059;28;20222;-74
2022/02/13 12:30:51;;;;;;;7.37;4.27;;;13.20;30.40;;;;;;5094256;28;20226;-75
2022/02/13 12:33:43;;;;;;;9.57;4.33;;;13.00;29.70;;;;;;5092802;28;20188;-74
2022/02/13 12:36:31;;;;;;;8.03;4.27;;;12.80;29.80;;;;;;5093402;28;20206;-74
2022/02/13 12:39:23;;;;;;;6.33;3.50;;;13.00;31.70;;;;;;5094237;28;20674;-74
2022/02/13 12:42:10;;;;;;;8.30;4.00;;;13.60;29.10;;;;;;5093624;28;20202;-74
2022/02/13 12:44:59;;;;;;;9.17;4.20;;;14.70;28.90;;;;;;5093491;28;20345;-74
2022/02/13 12:47:51;;;;;;;9.47;4.10;;;15.50;28.00;;;;;;5093571;28;20235;-74
2022/02/13 12:50:40;;;;;;;6.23;3.50;;;17.00;27.70;;;;;;5093499;28;20324;-74
2022/02/13 12:53:29;;;;;;;10.03;3.37;;;17.80;25.60;;;;;;5093479;28;20567;-75
2022/02/13 12:56:18;;;;;;;8.53;4.07;;;18.30;25.40;;;;;;5094088;28;20194;-75
2022/02/13 12:59:06;;;;;;;8.80;4.23;;;19.20;24.40;;;;;;5093511;28;20207;-74
2022/02/13 13:01:56;;;;;;;11.00;3.17;;;19.30;24.10;;;;;;5093423;28;20202;-74
2022/02/13 13:04:45;;;;;;;7.03;3.70;;;18.80;23.70;;;;;;5093145;28;20219;-74
2022/02/13 13:07:33;;;;;;;5.93;3.40;;;17.90;23.70;;;;;;5092054;28;20201;-74
2022/02/13 13:10:23;;;;;;;6.20;3.13;;;17.60;24.80;;;;;;5091675;28;20211;-74
2022/02/13 13:13:11;;;;;;;7.73;3.90;;;17.30;23.50;;;;;;5093280;28;20194;-74
2022/02/13 13:16:03;;;;;;;8.60;3.83;;;16.90;24.20;;;;;;5093165;28;20199;-75
2022/02/13 13:18:55;;;;;;;6.77;3.57;;;17.00;24.10;;;;;;5087104;28;20554;-74
2022/02/13 13:21:47;;;;;;;6.97;3.83;;;17.30;25.30;;;;;;5093056;28;20199;-74
2022/02/13 13:24:36;;;;;;;8.97;3.40;;;18.30;24.20;;;;;;5092730;28;20210;-74
2022/02/13 13:27:25;;;;;;;6.53;4.03;;;18.70;23.10;;;;;;5091909;28;20200;-74
2022/02/13 13:30:16;;;;;;;9.40;4.00;;;18.80;23.10;;;;;;5092771;28;20273;-75
2022/02/13 13:33:05;;;;;;;6.97;3.80;;;18.80;22.80;;;;;;5093150;28;20651;-75
2022/02/13 13:35:54;;;;;;;7.50;3.60;;;19.20;23.80;;;;;;5092960;28;20203;-74
2022/02/13 13:38:43;;;;;;;6.90;3.37;;;18.90;22.00;;;;;;5092764;28;20208;-74
2022/02/13 13:41:34;;;;;;;8.27;4.10;;;19.80;22.70;;;;;;5092860;28;20306;-74
2022/02/13 13:44:23;;;;;;;8.43;3.67;;;19.70;23.20;;;;;;5092478;28;20706;-74
2022/02/13 13:47:17;;;;;;;8.83;4.00;;;20.30;22.40;;;;;;5092175;28;20227;-74
2022/02/13 13:50:05;;;;;;;7.17;3.50;;;19.90;22.20;;;;;;5091878;28;20679;-74
2022/02/13 13:52:53;;;;;;;6.87;3.67;;;19.50;22.30;;;;;;5092558;28;20197;-74
2022/02/13 13:55:42;;;;;;;9.73;3.30;;;18.90;22.10;;;;;;5091840;28;20283;-74
2022/02/13 13:58:31;;;;;;;6.57;3.90;;;18.90;24.00;;;;;;5092353;28;20206;-75
2022/02/13 14:01:19;;;;;;;6.70;3.23;;;18.70;23.80;;;;;;5092486;28;20236;-74
2022/02/13 14:04:06;;;;;;;8.53;3.30;;;18.90;22.80;;;;;;5092125;28;20308;-74
2022/02/13 14:06:54;;;;;;;7.57;3.80;;;19.40;22.50;;;;;;5091683;28;20661;-74
2022/02/13 14:09:41;;;;;;;6.23;3.50;;;20.40;23.20;;;;;;5091753;28;20219;-74
2022/02/13 14:12:31;;;;;;;5.90;3.20;;;19.80;21.80;;;;;;5092209;28;20200;-74
2022/02/13 14:15:18;;;;;;;6.07;3.37;;;20.10;22.00;;;;;;5092192;28;20199;-75
2022/02/13 14:18:06;;;;;;;10.23;3.50;;;20.50;21.60;;;;;;5092128;28;20209;-75
2022/02/13 14:20:54;;;;;;;7.00;3.70;;;20.90;21.70;;;;;;5092210;28;20203;-74
2022/02/13 14:23:44;;;;;;;6.57;3.50;;;21.80;21.70;;;;;;5092635;28;20217;-74
2022/02/13 14:26:32;;;;;;;6.10;3.47;;;21.70;20.60;;;;;;5092950;28;20278;-74
2022/02/13 14:29:21;;;;;;;6.40;3.50;;;21.00;21.40;;;;;;5092191;28;20199;-74